createdAt,value
2022-08-14T00:02:27.161Z,24.79
2022-08-14T00:04:55.537Z,24.77
2022-08-14T00:07:23.364Z,24.54
2022-08-14T00:10:01.843Z,24.37
2022-08-14T00:12:41.747Z,24.50
2022-08-14T00:15:20.052Z,24.59
2022-08-14T00:17:53.430Z,24.65
2022-08-14T00:20:29.283Z,24.61
2022-08-14T00:23:08.239Z,24.61
2022-08-14T00:25:42.157Z,24.19
2022-08-14T00:28:15.499Z,24.29
2022-08-14T00:30:47.356Z,24.18
2022-08-14T00:33:16.433Z,24.15
2022-08-14T00:36:35.189Z,24.21
2022-08-14T00:38:34.945Z,24.13
2022-08-14T00:41:11.063Z,24.07
2022-08-14T00:43:43.075Z,24.11
2022-08-14T00:46:23.407Z,23.83
2022-08-14T00:48:59.512Z,23.73
2022-08-14T00:51:34.503Z,23.68
2022-08-14T00:54:17.089Z,23.60
2022-08-14T00:56:55.172Z,23.55
2022-08-14T00:59:26.134Z,23.60
2022-08-14T01:01:59.945Z,23.57
2022-08-14T01:04:52.477Z,23.61
2022-08-14T01:07:20.669Z,23.80
2022-08-14T01:09:54.251Z,23.65
2022-08-14T01:12:26.502Z,23.62
2022-08-14T01:15:01.961Z,23.57
2022-08-14T01:17:52.070Z,23.54
2022-08-14T01:20:41.979Z,23.36
2022-08-14T01:23:15.764Z,23.54
2022-08-14T01:25:44.509Z,23.26
2022-08-14T01:28:46.536Z,23.23
2022-08-14T01:31:02.469Z,23.28
2022-08-14T01:33:30.448Z,23.55
2022-08-14T01:36:22.760Z,23.26
2022-08-14T01:38:51.888Z,23.41
2022-08-14T01:41:23.058Z,23.31
2022-08-14T01:44:03.688Z,23.28
2022-08-14T01:46:36.633Z,23.23
2022-08-14T01:49:08.338Z,23.09
2022-08-14T01:51:37.908Z,23.16
2022-08-14T01:54:14.327Z,23.24
2022-08-14T01:56:42.929Z,23.59
2022-08-14T01:59:19.495Z,23.58
2022-08-14T02:01:58.288Z,23.61
2022-08-14T02:04:55.612Z,23.54
2022-08-14T02:07:34.614Z,23.27
2022-08-14T02:10:13.131Z,23.05
2022-08-14T02:12:48.888Z,23.02
2022-08-14T02:15:22.246Z,23.13
2022-08-14T02:17:50.655Z,23.19
2022-08-14T02:20:23.859Z,23.15
2022-08-14T02:22:54.520Z,23.27
2022-08-14T02:25:23.246Z,23.01
2022-08-14T02:28:22.026Z,22.94
2022-08-14T02:30:44.719Z,22.83
2022-08-14T02:33:13.141Z,22.75
2022-08-14T02:35:43.520Z,22.73
2022-08-14T02:38:30.377Z,22.93
2022-08-14T02:40:59.107Z,22.95
2022-08-14T02:43:37.410Z,23.03
2022-08-14T02:46:20.386Z,22.88
2022-08-14T02:49:01.562Z,22.71
2022-08-14T02:51:36.611Z,22.72
2022-08-14T02:54:07.416Z,22.75
2022-08-14T02:57:15.670Z,22.51
2022-08-14T02:59:33.816Z,22.61
2022-08-14T03:02:03.515Z,22.51
2022-08-14T03:04:32.537Z,22.45
2022-08-14T03:07:07.487Z,22.31
2022-08-14T03:10:27.073Z,22.21
2022-08-14T03:12:27.219Z,22.20
2022-08-14T03:15:03.298Z,22.24
2022-08-14T03:17:56.453Z,22.11
2022-08-14T03:20:22.300Z,22.02
2022-08-14T03:22:51.727Z,22.07
2022-08-14T03:25:22.157Z,22.18
2022-08-14T03:27:58.985Z,22.22
2022-08-14T03:30:37.054Z,22.19
2022-08-14T03:33:10.553Z,22.14
2022-08-14T03:36:05.629Z,22.13
2022-08-14T03:39:11.889Z,22.08
2022-08-14T03:41:24.441Z,22.14
2022-08-14T03:44:01.361Z,22.00
2022-08-14T03:46:54.938Z,22.21
2022-08-14T03:49:28.814Z,22.27
2022-08-14T03:52:07.623Z,22.33
2022-08-14T03:54:46.728Z,22.36
2022-08-14T03:57:23.749Z,22.41
2022-08-14T03:59:51.550Z,22.48
2022-08-14T04:02:32.563Z,22.20
2022-08-14T04:05:11.922Z,22.20
2022-08-14T04:07:49.625Z,22.19
2022-08-14T04:10:31.918Z,22.26
2022-08-14T04:13:06.091Z,22.42
2022-08-14T04:15:56.761Z,22.21
2022-08-14T04:18:21.945Z,22.17
2022-08-14T04:20:54.416Z,22.16
2022-08-14T04:23:29.849Z,22.17
2022-08-14T04:26:02.733Z,22.24
2022-08-14T04:29:07.882Z,22.15
2022-08-14T04:31:34.666Z,22.45
2022-08-14T04:34:11.912Z,22.26
2022-08-14T04:37:07.195Z,22.37
2022-08-14T04:39:57.411Z,22.48
2022-08-14T04:42:47.553Z,22.40
2022-08-14T04:45:29.713Z,22.48
2022-08-14T04:48:13.274Z,22.36
2022-08-14T04:50:44.741Z,22.73
2022-08-14T04:53:23.193Z,22.67
2022-08-14T04:55:54.321Z,22.85
2022-08-14T04:58:32.998Z,22.68
2022-08-14T05:01:06.263Z,22.87
2022-08-14T05:03:41.349Z,22.93
2022-08-14T05:06:38.575Z,22.79
2022-08-14T05:09:00.158Z,22.81
2022-08-14T05:11:28.337Z,23.14
2022-08-14T05:14:33.127Z,23.03
2022-08-14T05:16:46.826Z,22.96
2022-08-14T05:19:18.319Z,22.79
2022-08-14T05:22:15.805Z,22.83
2022-08-14T05:24:51.151Z,22.97
2022-08-14T05:27:22.790Z,23.04
2022-08-14T05:29:53.788Z,23.02
2022-08-14T05:32:27.187Z,23.10
2022-08-14T05:34:59.688Z,23.07
2022-08-14T05:37:29.665Z,23.57
2022-08-14T05:40:00.466Z,23.35
2022-08-14T05:42:32.231Z,23.45
2022-08-14T05:45:04.158Z,23.52
2022-08-14T05:47:33.927Z,23.26
2022-08-14T05:50:18.478Z,23.31
2022-08-14T05:52:48.906Z,23.88
2022-08-14T05:55:21.765Z,24.06
2022-08-14T05:58:09.072Z,23.80
2022-08-14T06:00:41.360Z,23.98
2022-08-14T06:03:11.753Z,24.04
2022-08-14T06:05:41.037Z,24.16
2022-08-14T06:08:31.198Z,24.12
2022-08-14T06:11:07.282Z,24.17
2022-08-14T06:13:41.146Z,24.50
2022-08-14T06:16:17.546Z,24.51
2022-08-14T06:18:52.518Z,24.34
2022-08-14T06:21:22.904Z,24.04
2022-08-14T06:23:51.471Z,24.16
2022-08-14T06:26:20.904Z,24.55
2022-08-14T06:28:51.810Z,24.23
2022-08-14T06:31:21.277Z,24.27
2022-08-14T06:35:02.858Z,24.39
2022-08-14T06:36:39.346Z,24.40
2022-08-14T06:39:10.108Z,24.75
2022-08-14T06:41:59.425Z,24.74
2022-08-14T06:44:30.848Z,25.14
2022-08-14T06:47:03.274Z,24.92
2022-08-14T06:49:40.292Z,25.26
2022-08-14T06:52:16.689Z,25.36
2022-08-14T06:54:45.852Z,25.94
2022-08-14T06:57:13.921Z,26.44
2022-08-14T06:59:42.306Z,27.10
2022-08-14T07:02:29.547Z,27.00
2022-08-14T07:05:22.701Z,27.34
2022-08-14T07:07:51.622Z,27.79
2022-08-14T07:10:24.764Z,27.43
2022-08-14T07:13:00.912Z,28.04
2022-08-14T07:15:30.194Z,28.01
2022-08-14T07:18:00.570Z,27.72
2022-08-14T07:20:30.975Z,28.11
2022-08-14T07:23:07.725Z,27.69
2022-08-14T07:25:42.284Z,28.15
2022-08-14T07:28:20.521Z,28.49
2022-08-14T07:30:50.826Z,28.55
2022-08-14T07:33:24.290Z,28.43
2022-08-14T07:35:58.732Z,28.19
2022-08-14T07:38:36.256Z,27.83
2022-08-14T07:41:11.817Z,28.49
2022-08-14T07:43:55.250Z,28.26
2022-08-14T07:46:29.191Z,28.39
2022-08-14T07:48:59.398Z,28.58
2022-08-14T07:51:34.462Z,28.34
2022-08-14T07:54:09.822Z,28.87
2022-08-14T07:56:48.112Z,28.54
2022-08-14T07:59:18.687Z,29.03
2022-08-14T08:01:48.333Z,29.12
2022-08-14T08:04:25.310Z,28.99
2022-08-14T08:06:55.225Z,28.97
2022-08-14T08:09:29.852Z,29.14
2022-08-14T08:12:05.045Z,29.25
2022-08-14T08:14:56.541Z,29.35
2022-08-14T08:17:26.326Z,29.54
2022-08-14T08:20:02.594Z,28.97
2022-08-14T08:22:32.564Z,28.38
2022-08-14T08:25:00.698Z,28.56
2022-08-14T08:27:34.206Z,28.07
2022-08-14T08:30:10.305Z,28.42
2022-08-14T08:32:41.265Z,28.40
2022-08-14T08:35:25.718Z,28.51
2022-08-14T08:39:17.976Z,29.19
2022-08-14T08:41:09.677Z,29.06
2022-08-14T08:43:46.286Z,29.17
2022-08-14T08:46:23.589Z,29.36
2022-08-14T08:51:33.244Z,29.98
2022-08-14T08:54:06.456Z,29.80
2022-08-14T08:56:52.790Z,29.30
2022-08-14T08:59:31.664Z,29.76
2022-08-14T09:02:10.123Z,30.46
2022-08-14T09:04:45.892Z,29.95
2022-08-14T09:07:27.809Z,30.33
2022-08-14T09:09:58.995Z,31.20
2022-08-14T09:12:32.469Z,31.23
2022-08-14T09:15:02.118Z,30.16
2022-08-14T09:17:30.024Z,30.91
2022-08-14T09:20:01.938Z,30.62
2022-08-14T09:22:34.881Z,31.35
2022-08-14T09:25:07.539Z,30.58
2022-08-14T09:27:38.180Z,30.44
2022-08-14T09:30:31.504Z,31.36
2022-08-14T09:33:11.645Z,31.81
2022-08-14T09:35:42.793Z,31.59
2022-08-14T09:38:43.557Z,30.78
2022-08-14T09:42:17.704Z,30.95
2022-08-14T09:44:33.721Z,32.08
2022-08-14T09:47:02.246Z,32.14
2022-08-14T09:49:32.202Z,31.49
2022-08-14T09:52:33.218Z,31.86
2022-08-14T09:54:55.890Z,31.49
2022-08-14T09:57:29.054Z,31.44
2022-08-14T09:59:57.391Z,32.08
2022-08-14T10:02:31.388Z,32.31
2022-08-14T10:05:10.271Z,32.45
2022-08-14T10:07:53.482Z,32.20
2022-08-14T10:10:43.304Z,31.79
2022-08-14T10:13:26.156Z,31.57
2022-08-14T10:16:00.050Z,31.89
2022-08-14T10:18:28.459Z,31.71
2022-08-14T10:20:58.975Z,31.56
2022-08-14T10:23:39.236Z,31.66
2022-08-14T10:26:08.585Z,32.04
2022-08-14T10:29:17.671Z,32.14
2022-08-14T10:31:43.311Z,32.31
2022-08-14T10:34:18.579Z,32.41
2022-08-14T10:37:02.662Z,32.51
2022-08-14T10:39:30.803Z,31.78
2022-08-14T10:42:16.422Z,31.81
2022-08-14T10:44:49.158Z,31.98
2022-08-14T10:47:40.288Z,32.32
2022-08-14T10:50:12.163Z,32.41
2022-08-14T10:52:45.053Z,32.42
2022-08-14T10:55:15.656Z,32.47
2022-08-14T10:57:54.126Z,32.76
2022-08-14T11:00:29.843Z,32.46
2022-08-14T11:03:09.651Z,32.84
2022-08-14T11:05:45.169Z,32.57
2022-08-14T11:08:16.026Z,32.80
2022-08-14T11:10:46.257Z,32.48
2022-08-14T11:13:24.490Z,32.82
2022-08-14T11:15:56.220Z,32.87
2022-08-14T11:18:32.335Z,32.61
2022-08-14T11:21:09.850Z,32.32
2022-08-14T11:23:43.826Z,31.90
2022-08-14T11:26:19.123Z,31.92
2022-08-14T11:28:49.667Z,32.49
2022-08-14T11:31:21.954Z,32.82
2022-08-14T11:33:56.874Z,32.85
2022-08-14T11:36:57.126Z,32.82
2022-08-14T11:39:34.774Z,32.73
2022-08-14T11:42:55.419Z,32.78
2022-08-14T11:45:00.240Z,32.90
2022-08-14T11:47:35.576Z,32.90
2022-08-14T11:50:33.623Z,32.60
2022-08-14T11:53:04.789Z,33.09
2022-08-14T11:55:39.052Z,32.94
2022-08-14T11:58:11.369Z,32.86
2022-08-14T12:01:01.859Z,32.71
2022-08-14T12:03:51.385Z,32.42
2022-08-14T12:06:28.823Z,32.85
2022-08-14T12:09:03.772Z,33.00
2022-08-14T12:11:43.513Z,33.31
2022-08-14T12:14:13.412Z,33.59
2022-08-14T12:17:12.748Z,33.44
2022-08-14T12:19:51.211Z,33.42
2022-08-14T12:22:40.164Z,33.76
2022-08-14T12:25:14.071Z,34.43
2022-08-14T12:27:53.588Z,33.51
2022-08-14T12:30:43.416Z,33.30
2022-08-14T12:33:30.744Z,33.87
2022-08-14T12:36:05.840Z,33.59
2022-08-14T12:38:45.773Z,33.20
2022-08-14T12:41:20.277Z,32.86
2022-08-14T12:43:56.450Z,32.50
2022-08-14T12:46:28.589Z,32.80
2022-08-14T12:49:06.877Z,32.81
2022-08-14T12:51:35.733Z,33.26
2022-08-14T12:54:26.949Z,33.53
2022-08-14T12:57:14.672Z,33.90
2022-08-14T12:59:47.280Z,33.53
2022-08-14T13:02:26.227Z,33.83
2022-08-14T13:04:56.797Z,32.93
2022-08-14T13:07:32.657Z,33.38
2022-08-14T13:10:46.282Z,33.34
2022-08-14T13:13:12.448Z,33.16
2022-08-14T13:15:40.815Z,32.94
2022-08-14T13:18:11.352Z,32.68
2022-08-14T13:20:49.534Z,33.21
2022-08-14T13:23:28.609Z,33.43
2022-08-14T13:26:00.564Z,32.94
2022-08-14T13:28:33.844Z,32.92
2022-08-14T13:31:10.915Z,32.52
2022-08-14T13:33:40.779Z,33.24
2022-08-14T13:36:11.015Z,33.89
2022-08-14T13:38:53.960Z,33.77
2022-08-14T13:41:28.051Z,34.04
2022-08-14T13:44:03.370Z,33.89
2022-08-14T13:46:31.007Z,33.89
2022-08-14T13:48:59.735Z,33.62
2022-08-14T13:51:32.103Z,33.57
2022-08-14T13:54:10.320Z,33.02
2022-08-14T13:56:40.501Z,33.50
2022-08-14T13:59:09.211Z,33.40
2022-08-14T14:01:43.351Z,33.46
2022-08-14T14:04:19.580Z,33.90
2022-08-14T14:06:51.243Z,34.01
2022-08-14T14:09:25.724Z,33.52
2022-08-14T14:11:55.021Z,33.32
2022-08-14T14:14:29.789Z,33.20
2022-08-14T14:17:13.872Z,33.66
2022-08-14T14:19:47.765Z,33.01
2022-08-14T14:22:44.959Z,33.49
2022-08-14T14:25:04.100Z,33.92
2022-08-14T14:27:41.553Z,33.32
2022-08-14T14:30:21.639Z,33.59
2022-08-14T14:33:04.291Z,33.50
2022-08-14T14:35:35.334Z,33.54
2022-08-14T14:38:07.285Z,33.31
2022-08-14T14:40:53.416Z,33.40
2022-08-14T14:43:26.381Z,33.22
2022-08-14T14:45:55.689Z,33.04
2022-08-14T14:48:28.240Z,33.03
2022-08-14T14:50:59.459Z,32.85
2022-08-14T14:53:38.594Z,32.67
2022-08-14T14:56:50.606Z,32.83
2022-08-14T14:58:58.430Z,33.30
2022-08-14T15:01:26.344Z,32.93
2022-08-14T15:03:56.344Z,32.91
2022-08-14T15:06:29.027Z,32.85
2022-08-14T15:09:00.079Z,33.12
2022-08-14T15:11:30.445Z,33.12
2022-08-14T15:14:00.370Z,33.24
2022-08-14T15:16:28.983Z,33.16
2022-08-14T15:18:56.973Z,33.04
2022-08-14T15:21:25.160Z,32.77
2022-08-14T15:23:55.055Z,32.93
2022-08-14T15:26:32.162Z,32.74
2022-08-14T15:29:05.073Z,32.87
2022-08-14T15:31:36.657Z,32.89
2022-08-14T15:34:43.643Z,33.06
2022-08-14T15:36:59.705Z,32.47
2022-08-14T15:39:29.379Z,32.55
2022-08-14T15:42:02.662Z,32.65
2022-08-14T15:44:34.174Z,33.05
2022-08-14T15:47:09.300Z,33.06
2022-08-14T15:49:39.821Z,32.95
2022-08-14T15:52:08.141Z,32.60
2022-08-14T15:54:38.520Z,32.35
2022-08-14T15:57:09.073Z,32.75
2022-08-14T15:59:57.418Z,32.56
2022-08-14T16:02:27.828Z,33.03
2022-08-14T16:04:56.467Z,33.08
2022-08-14T16:07:27.590Z,32.80
2022-08-14T16:10:27.639Z,32.68
2022-08-14T16:12:50.036Z,32.62
2022-08-14T16:15:18.956Z,32.78
2022-08-14T16:17:47.652Z,32.63
2022-08-14T16:20:42.236Z,32.68
2022-08-14T16:23:11.616Z,32.70
2022-08-14T16:25:56.029Z,32.65
2022-08-14T16:28:27.414Z,32.56
2022-08-14T16:30:56.262Z,32.52
2022-08-14T16:33:56.334Z,32.51
2022-08-14T16:36:30.390Z,32.71
2022-08-14T16:39:02.059Z,32.78
2022-08-14T16:41:30.377Z,32.56
2022-08-14T16:44:04.708Z,32.57
2022-08-14T16:46:42.887Z,32.27
2022-08-14T16:49:16.120Z,32.07
2022-08-14T16:51:46.468Z,32.02
2022-08-14T16:54:35.151Z,31.95
2022-08-14T16:57:16.223Z,32.01
2022-08-14T16:59:52.679Z,32.05
2022-08-14T17:02:42.642Z,31.98
2022-08-14T17:05:17.718Z,31.99
2022-08-14T17:08:28.626Z,31.89
2022-08-14T17:11:14.606Z,31.95
2022-08-14T17:14:01.767Z,31.97
2022-08-14T17:16:56.079Z,31.82
2022-08-14T17:19:24.095Z,31.98
2022-08-14T17:21:52.655Z,31.76
2022-08-14T17:24:56.537Z,31.79
2022-08-14T17:27:10.974Z,31.67
2022-08-14T17:29:56.309Z,31.42
2022-08-14T17:32:55.825Z,31.38
2022-08-14T17:35:26.680Z,31.29
2022-08-14T17:38:38.206Z,31.20
2022-08-14T17:41:23.396Z,31.35
2022-08-14T17:43:54.966Z,31.37
2022-08-14T17:46:50.196Z,31.25
2022-08-14T17:49:32.142Z,31.28
2022-08-14T17:52:16.685Z,31.26
2022-08-14T17:56:02.115Z,31.05
2022-08-14T17:58:20.613Z,30.98
2022-08-14T18:00:51.488Z,31.15
2022-08-14T18:03:50.338Z,31.17
2022-08-14T18:06:39.399Z,30.79
2022-08-14T18:08:58.991Z,30.81
2022-08-14T18:11:45.804Z,30.88
2022-08-14T18:14:31.541Z,30.95
2022-08-14T18:17:02.195Z,30.73
2022-08-14T18:19:35.195Z,30.83
2022-08-14T18:22:23.948Z,30.96
2022-08-14T18:24:53.366Z,31.01
2022-08-14T18:27:23.793Z,31.27
2022-08-14T18:29:56.704Z,31.04
2022-08-14T18:32:31.391Z,30.61
2022-08-14T18:35:11.273Z,30.37
2022-08-14T18:37:42.265Z,30.53
2022-08-14T18:40:34.348Z,30.70
2022-08-14T18:43:03.694Z,30.39
2022-08-14T18:45:34.427Z,30.34
2022-08-14T18:48:33.394Z,30.65
2022-08-14T18:51:14.551Z,30.77
2022-08-14T18:53:51.233Z,30.55
2022-08-14T18:56:58.998Z,30.41
2022-08-14T18:59:40.169Z,30.29
2022-08-14T19:02:30.528Z,30.01
2022-08-14T19:05:02.377Z,29.66
2022-08-14T19:07:33.428Z,29.69
2022-08-14T19:10:05.962Z,29.82
2022-08-14T19:12:56.701Z,29.84
2022-08-14T19:15:34.583Z,29.85
2022-08-14T19:18:25.838Z,29.75
2022-08-14T19:21:03.339Z,29.54
2022-08-14T19:23:44.037Z,29.49
2022-08-14T19:26:35.522Z,29.48
2022-08-14T19:29:39.720Z,29.47
2022-08-14T19:32:40.755Z,29.40
2022-08-14T19:35:18.347Z,29.42
2022-08-14T19:37:54.027Z,29.29
2022-08-14T19:40:29.340Z,29.35
2022-08-14T19:42:59.297Z,29.24
2022-08-14T19:45:27.733Z,29.24
2022-08-14T19:47:57.866Z,29.17
2022-08-14T19:50:40.702Z,29.09
2022-08-14T19:53:16.586Z,29.17
2022-08-14T19:56:02.025Z,29.18
2022-08-14T19:58:55.361Z,28.87
2022-08-14T20:01:37.473Z,29.08
2022-08-14T20:04:45.237Z,29.07
2022-08-14T20:07:01.584Z,29.15
2022-08-14T20:11:08.563Z,29.15
2022-08-14T20:12:36.537Z,29.02
2022-08-14T20:15:20.919Z,29.10
2022-08-14T20:17:52.515Z,28.99
2022-08-14T20:20:32.093Z,28.99
2022-08-14T20:23:11.378Z,29.26
2022-08-14T20:25:45.255Z,29.15
2022-08-14T20:28:35.709Z,29.30
2022-08-14T20:31:18.257Z,29.46
2022-08-14T20:34:24.723Z,29.48
2022-08-14T20:37:10.449Z,29.27
2022-08-14T20:39:54.308Z,29.33
2022-08-14T20:42:49.563Z,29.77
2022-08-14T20:45:23.975Z,29.87
2022-08-14T20:48:08.971Z,30.14
2022-08-14T20:50:44.946Z,29.93
2022-08-14T20:53:32.437Z,30.11
2022-08-14T20:56:04.595Z,29.96
2022-08-14T20:58:49.640Z,29.19
2022-08-14T21:01:20.870Z,29.15
2022-08-14T21:03:58.300Z,29.26
2022-08-14T21:07:23.360Z,28.94
2022-08-14T21:10:03.039Z,28.92
2022-08-14T21:12:34.767Z,28.66
2022-08-14T21:14:58.890Z,28.95
2022-08-14T21:17:29.750Z,29.02
2022-08-14T21:19:57.531Z,29.07
2022-08-14T21:22:26.916Z,28.89
2022-08-14T21:25:01.703Z,28.51
2022-08-14T21:27:37.194Z,28.44
2022-08-14T21:30:21.186Z,29.13
2022-08-14T21:33:09.064Z,29.13
2022-08-14T21:35:45.666Z,28.87
2022-08-14T21:38:18.321Z,28.99
2022-08-14T21:40:50.481Z,29.27
2022-08-14T21:43:24.905Z,29.24
2022-08-14T21:45:58.809Z,29.29
2022-08-14T21:48:34.066Z,29.60
2022-08-14T21:51:55.077Z,29.50
2022-08-14T21:54:00.059Z,29.51
2022-08-14T21:56:38.926Z,29.23
2022-08-14T21:59:11.670Z,29.25
2022-08-14T22:02:01.975Z,28.69
2022-08-14T22:04:40.655Z,28.82
2022-08-14T22:07:17.152Z,28.96
2022-08-14T22:09:54.769Z,28.69
2022-08-14T22:12:58.463Z,28.56
2022-08-14T22:15:16.422Z,28.65
2022-08-14T22:17:45.165Z,28.63
2022-08-14T22:20:20.586Z,28.82
2022-08-14T22:22:48.599Z,28.70
2022-08-14T22:25:33.562Z,28.80
2022-08-14T22:28:09.788Z,29.09
2022-08-14T22:30:38.988Z,28.89
2022-08-14T22:33:13.362Z,28.30
2022-08-14T22:35:41.788Z,28.00
2022-08-14T22:38:37.589Z,27.83
2022-08-14T22:41:26.949Z,27.71
2022-08-14T22:43:50.163Z,27.81
2022-08-14T22:46:20.114Z,27.70
2022-08-14T22:48:49.289Z,27.50
2022-08-14T22:51:20.407Z,27.71
2022-08-14T22:53:52.287Z,27.62
2022-08-14T22:56:29.508Z,27.46
2022-08-14T22:59:09.584Z,27.42
2022-08-14T23:01:57.172Z,27.19
2022-08-14T23:04:35.308Z,27.16
2022-08-14T23:07:22.560Z,27.33
2022-08-14T23:09:56.352Z,27.31
2022-08-14T23:12:45.667Z,27.30
2022-08-14T23:15:16.102Z,27.64
2022-08-14T23:17:46.701Z,27.59
2022-08-14T23:20:19.760Z,27.58
2022-08-14T23:22:48.863Z,27.79
2022-08-14T23:25:20.133Z,27.53
2022-08-14T23:28:34.940Z,27.44
2022-08-14T23:30:55.941Z,27.52
2022-08-14T23:33:23.418Z,27.87
2022-08-14T23:35:59.159Z,27.72
2022-08-14T23:38:30.830Z,27.72
2022-08-14T23:41:00.842Z,27.98
2022-08-14T23:43:31.063Z,28.12
2022-08-14T23:45:59.425Z,27.99
2022-08-14T23:48:28.560Z,27.88
2022-08-14T23:50:56.805Z,27.50
2022-08-14T23:53:47.214Z,27.13
2022-08-14T23:56:32.074Z,26.95
2022-08-14T23:59:01.831Z,26.49
